ASX454 LIRF-LIMF
Flight info
| Callsign | ASX454 |
|---|---|
| Flight time | N/A |
| Altitude | 34000 |
| Route | LIRF/25 NEMBO DCT ELB DCT NORNI DCT UPDIN DCT SPEZI DCT IDONA DCT MEBUR |
| Aircraft | A20N/M-SDE2E3FGHIRWXY/LB1 |
Departure
| Time | N/A |
|---|---|
| Airport | Rome–Fiumicino Leonardo da Vinci International Airport (LIRF) |
Arrival
| Time | 2026-05-05 21:07 |
|---|---|
| Airport | Turin Airport (LIMF) |
| Time | Latitude | Longitude | Altitude | Speed | Heading |
|---|---|---|---|---|---|
| 2026-05-05 20:48 | 44.81687 | 9.26653 | 19446 ft | 293 kts | 126° |
| 2026-05-05 20:48 | 44.80474 | 9.28832 | 18991 ft | 279 kts | 150° |
| 2026-05-05 20:48 | 44.78782 | 9.29955 | 18563 ft | 263 kts | 177° |
| 2026-05-05 20:49 | 44.77020 | 9.29783 | 18189 ft | 252 kts | 204° |
| 2026-05-05 20:49 | 44.75595 | 9.28420 | 17811 ft | 248 kts | 231° |
| 2026-05-05 20:49 | 44.74867 | 9.26242 | 17440 ft | 252 kts | 258° |
| 2026-05-05 20:49 | 44.74860 | 9.23753 | 17064 ft | 258 kts | 270° |
| 2026-05-05 20:50 | 44.75079 | 9.21255 | 16669 ft | 260 kts | 272° |
| 2026-05-05 20:50 | 44.75345 | 9.18712 | 16303 ft | 260 kts | 273° |
| 2026-05-05 20:50 | 44.75611 | 9.16232 | 15976 ft | 259 kts | 274° |
| 2026-05-05 20:50 | 44.75874 | 9.13736 | 15641 ft | 257 kts | 273° |
| 2026-05-05 20:51 | 44.76135 | 9.11254 | 15310 ft | 256 kts | 273° |
| 2026-05-05 20:51 | 44.76393 | 9.08778 | 14985 ft | 254 kts | 274° |
| 2026-05-05 20:51 | 44.76637 | 9.06344 | 14653 ft | 253 kts | 273° |
| 2026-05-05 20:51 | 44.76879 | 9.03894 | 14324 ft | 252 kts | 274° |
| 2026-05-05 20:52 | 44.77116 | 9.01488 | 14020 ft | 249 kts | 274° |
| 2026-05-05 20:52 | 44.77353 | 8.99006 | 13979 ft | 267 kts | 273° |
| 2026-05-05 20:52 | 44.77600 | 8.96258 | 13978 ft | 298 kts | 274° |
| 2026-05-05 20:52 | 44.77856 | 8.93200 | 13976 ft | 327 kts | 273° |
| 2026-05-05 20:53 | 44.78122 | 8.89918 | 13970 ft | 354 kts | 273° |
| 2026-05-05 20:53 | 44.78402 | 8.86342 | 13967 ft | 378 kts | 273° |
| 2026-05-05 20:53 | 44.78687 | 8.82597 | 13962 ft | 392 kts | 274° |
| 2026-05-05 20:53 | 44.78974 | 8.78769 | 13963 ft | 394 kts | 274° |
| 2026-05-05 20:54 | 44.79265 | 8.74897 | 13957 ft | 395 kts | 274° |
| 2026-05-05 20:54 | 44.79551 | 8.71077 | 13959 ft | 395 kts | 274° |
| 2026-05-05 20:54 | 44.79831 | 8.67236 | 13955 ft | 395 kts | 274° |
| 2026-05-05 20:54 | 44.80114 | 8.63406 | 13957 ft | 395 kts | 274° |
| 2026-05-05 20:55 | 44.80400 | 8.59534 | 13956 ft | 395 kts | 274° |
| 2026-05-05 20:55 | 44.80683 | 8.55725 | 13960 ft | 394 kts | 274° |
| 2026-05-05 20:55 | 44.80965 | 8.51896 | 13964 ft | 394 kts | 274° |
| 2026-05-05 20:55 | 44.81245 | 8.48025 | 13955 ft | 395 kts | 274° |
| 2026-05-05 20:56 | 44.81519 | 8.44233 | 13965 ft | 394 kts | 274° |
| 2026-05-05 20:56 | 44.81795 | 8.40371 | 13955 ft | 395 kts | 274° |
| 2026-05-05 20:56 | 44.82070 | 8.36554 | 13957 ft | 395 kts | 274° |
| 2026-05-05 20:56 | 44.82349 | 8.32651 | 13961 ft | 396 kts | 273° |
| 2026-05-05 20:57 | 44.82624 | 8.28842 | 13963 ft | 396 kts | 273° |
| 2026-05-05 20:57 | 44.82898 | 8.24983 | 13966 ft | 396 kts | 273° |
| 2026-05-05 20:57 | 44.83168 | 8.21118 | 13959 ft | 396 kts | 273° |
| 2026-05-05 20:57 | 44.83435 | 8.17287 | 13809 ft | 391 kts | 273° |
| 2026-05-05 20:58 | 44.83698 | 8.13527 | 13178 ft | 389 kts | 273° |
| 2026-05-05 20:58 | 44.83957 | 8.09725 | 12386 ft | 388 kts | 273° |
| 2026-05-05 20:58 | 44.84206 | 8.05966 | 11664 ft | 387 kts | 273° |
| 2026-05-05 20:58 | 44.84451 | 8.02247 | 11032 ft | 382 kts | 273° |
| 2026-05-05 20:59 | 44.84691 | 7.98613 | 10595 ft | 362 kts | 273° |
| 2026-05-05 20:59 | 44.84919 | 7.95180 | 10218 ft | 346 kts | 273° |
| 2026-05-05 20:59 | 44.85141 | 7.91854 | 9948 ft | 330 kts | 273° |
| 2026-05-05 20:59 | 44.85353 | 7.88783 | 9550 ft | 311 kts | 273° |
| 2026-05-05 21:00 | 44.85558 | 7.85827 | 9174 ft | 292 kts | 273° |
| 2026-05-05 21:00 | 44.85750 | 7.83089 | 8975 ft | 278 kts | 273° |
| 2026-05-05 21:00 | 44.85938 | 7.80368 | 8958 ft | 279 kts | 273° |
| 2026-05-05 21:00 | 44.86279 | 7.77661 | 8928 ft | 281 kts | 291° |
| 2026-05-05 21:01 | 44.87405 | 7.75464 | 8669 ft | 280 kts | 316° |
| 2026-05-05 21:01 | 44.88938 | 7.73733 | 8191 ft | 282 kts | 322° |
| 2026-05-05 21:01 | 44.90493 | 7.72070 | 7728 ft | 284 kts | 321° |
| 2026-05-05 21:01 | 44.92034 | 7.70315 | 7161 ft | 283 kts | 320° |
| 2026-05-05 21:02 | 44.93538 | 7.68500 | 6253 ft | 292 kts | 319° |
| 2026-05-05 21:02 | 44.95077 | 7.66587 | 5275 ft | 301 kts | 318° |
| 2026-05-05 21:02 | 44.96624 | 7.64656 | 4565 ft | 297 kts | 321° |
| 2026-05-05 21:02 | 44.98392 | 7.63372 | 4105 ft | 279 kts | 349° |
| 2026-05-05 21:03 | 45.00283 | 7.63337 | 4000 ft | 260 kts | 8° |
| 2026-05-05 21:03 | 45.02007 | 7.63669 | 3971 ft | 242 kts | 8° |
| 2026-05-05 21:03 | 45.03650 | 7.63906 | 3859 ft | 232 kts | 5° |
| 2026-05-05 21:03 | 45.05248 | 7.64042 | 3571 ft | 226 kts | 4° |
| 2026-05-05 21:04 | 45.06774 | 7.64132 | 3269 ft | 214 kts | 3° |
| 2026-05-05 21:04 | 45.08239 | 7.64216 | 3007 ft | 203 kts | 3° |
| 2026-05-05 21:04 | 45.09592 | 7.64298 | 2809 ft | 191 kts | 3° |
| 2026-05-05 21:04 | 45.10896 | 7.64381 | 2548 ft | 179 kts | 3° |
| 2026-05-05 21:05 | 45.12095 | 7.64456 | 2290 ft | 165 kts | 4° |
| 2026-05-05 21:05 | 45.13199 | 7.64526 | 2048 ft | 151 kts | 4° |
| 2026-05-05 21:05 | 45.14199 | 7.64589 | 1838 ft | 139 kts | 4° |
| 2026-05-05 21:05 | 45.15175 | 7.64651 | 1676 ft | 139 kts | 4° |
| 2026-05-05 21:06 | 45.16143 | 7.64713 | 1503 ft | 138 kts | 4° |
| 2026-05-05 21:06 | 45.17110 | 7.64774 | 1321 ft | 138 kts | 4° |
| 2026-05-05 21:06 | 45.18073 | 7.64838 | 1155 ft | 137 kts | 4° |
| 2026-05-05 21:06 | 45.19038 | 7.64895 | 981 ft | 137 kts | 4° |
| 2026-05-05 21:07 | 45.19917 | 7.64960 | 966 ft | 103 kts | 3° |
| 2026-05-05 21:07 | 45.20471 | 7.64991 | 976 ft | 56 kts | 3° |
| 2026-05-05 21:07 | 45.20761 | 7.65009 | 985 ft | 24 kts | 0° |
| 2026-05-05 21:07 | 45.20858 | 7.64905 | 988 ft | 16 kts | 232° |